Time;durP1;ratioP1;P1;durP2;ratioP2;P2;SDS_P1;SDS_P2;PMS_P1;PMS_P2;Temp;Humidity;BMP_temperature;BMP_pressure;BME280_temperature;BME280_humidity;BME280_pressure;Samples;Min_cycle;Max_cycle;Signal;HPM_P1;HPM_P2
2021/12/29 00:02:36;;;;;;;4.23;1.40;;;10.30;99.90;;;;;;4985108;28;20474;-72
2021/12/29 00:05:22;;;;;;;3.17;1.47;;;10.30;99.90;;;;;;4985187;28;20449;-72
2021/12/29 00:08:08;;;;;;;3.80;1.57;;;10.40;99.90;;;;;;4992796;28;20542;-73
2021/12/29 00:10:56;;;;;;;5.93;1.20;;;10.40;99.90;;;;;;4979826;28;20455;-72
2021/12/29 00:13:41;;;;;;;4.50;1.30;;;10.40;99.90;;;;;;4982634;28;20490;-72
2021/12/29 00:16:28;;;;;;;3.90;1.53;;;10.40;99.90;;;;;;4987784;28;20551;-72
2021/12/29 00:19:15;;;;;;;6.50;1.40;;;10.50;99.90;;;;;;4992452;28;20958;-72
2021/12/29 00:22:01;;;;;;;5.93;1.70;;;10.40;99.90;;;;;;4989282;28;20585;-71
2021/12/29 00:24:47;;;;;;;5.87;1.33;;;10.40;99.90;;;;;;4993230;28;20500;-72
2021/12/29 00:27:32;;;;;;;6.10;1.80;;;10.50;99.90;;;;;;4991484;28;20523;-72
2021/12/29 00:30:18;;;;;;;10.70;1.90;;;10.40;99.90;;;;;;4985597;28;20626;-72
2021/12/29 00:33:03;;;;;;;2.83;1.47;;;10.40;99.90;;;;;;4990327;28;20827;-72
2021/12/29 00:35:51;;;;;;;6.23;1.87;;;10.30;99.90;;;;;;4992359;28;20971;-72
2021/12/29 00:38:36;;;;;;;4.70;1.30;;;10.40;99.90;;;;;;4992768;28;20434;-72
2021/12/29 00:41:22;;;;;;;4.77;1.30;;;10.30;99.90;;;;;;4988543;28;20206;-72
2021/12/29 00:44:08;;;;;;;3.30;1.20;;;10.30;99.90;;;;;;4992158;28;20490;-73
2021/12/29 00:46:55;;;;;;;4.80;1.33;;;10.20;99.90;;;;;;4993063;28;20899;-72
2021/12/29 00:49:41;;;;;;;7.53;1.30;;;10.20;99.90;;;;;;4987662;28;20486;-72
2021/12/29 00:52:28;;;;;;;5.27;1.70;;;10.20;99.90;;;;;;4985243;28;21252;-72
2021/12/29 00:55:16;;;;;;;8.30;1.50;;;10.20;99.90;;;;;;4990879;28;20577;-72
2021/12/29 00:58:02;;;;;;;7.03;1.53;;;10.10;99.90;;;;;;4992475;28;20952;-73
2021/12/29 01:00:48;;;;;;;3.37;1.70;;;10.10;99.90;;;;;;4988673;28;20851;-72
2021/12/29 01:03:35;;;;;;;3.20;1.30;;;10.10;99.90;;;;;;4984961;28;20586;-71
2021/12/29 01:06:20;;;;;;;3.20;1.23;;;10.10;99.90;;;;;;4988402;28;20513;-72
2021/12/29 01:09:08;;;;;;;6.27;1.50;;;10.20;99.90;;;;;;4988166;28;20500;-72
2021/12/29 01:11:56;;;;;;;5.13;1.73;;;10.20;99.90;;;;;;4988803;28;20430;-72
2021/12/29 01:14:44;;;;;;;6.17;1.63;;;10.20;99.90;;;;;;4991438;28;21042;-72
2021/12/29 01:17:31;;;;;;;4.30;1.47;;;10.30;99.90;;;;;;4983844;28;20454;-72
2021/12/29 01:20:17;;;;;;;3.57;1.50;;;10.20;99.90;;;;;;4987214;28;20450;-72
2021/12/29 01:23:03;;;;;;;4.70;1.50;;;10.30;99.90;;;;;;4990358;28;20586;-72
2021/12/29 01:25:50;;;;;;;4.57;1.30;;;10.30;99.90;;;;;;4991398;28;20462;-72
2021/12/29 01:28:36;;;;;;;4.70;2.17;;;10.30;99.90;;;;;;4986842;28;20548;-72
2021/12/29 01:31:21;;;;;;;8.50;1.40;;;10.30;99.90;;;;;;4977349;28;20446;-72
2021/12/29 01:34:07;;;;;;;3.50;1.73;;;10.30;99.90;;;;;;4990778;28;20470;-71
2021/12/29 01:36:53;;;;;;;4.63;1.47;;;10.30;99.90;;;;;;4991089;28;20435;-71
2021/12/29 01:39:38;;;;;;;4.67;1.60;;;10.20;99.90;;;;;;4976769;28;20541;-72
2021/12/29 01:42:25;;;;;;;3.70;1.53;;;10.30;99.90;;;;;;4983679;28;20513;-73
2021/12/29 01:45:13;;;;;;;5.00;1.67;;;10.20;99.90;;;;;;4992339;28;20450;-73
2021/12/29 01:48:01;;;;;;;4.70;2.10;;;10.20;99.90;;;;;;4991706;28;20573;-72
2021/12/29 01:50:50;;;;;;;2.60;1.33;;;10.20;99.90;;;;;;4988565;28;20440;-73
2021/12/29 01:53:45;;;;;;;5.50;1.53;;;10.20;99.90;;;;;;4991824;28;20856;-73
2021/12/29 01:56:33;;;;;;;3.53;1.63;;;10.20;99.90;;;;;;4992582;28;20458;-73
2021/12/29 01:59:20;;;;;;;3.97;1.50;;;10.20;99.90;;;;;;4981466;28;20447;-73
2021/12/29 02:02:06;;;;;;;3.23;1.13;;;10.20;99.90;;;;;;4991293;28;20566;-73
2021/12/29 02:04:52;;;;;;;3.07;1.30;;;10.20;99.90;;;;;;4992368;28;20603;-72
2021/12/29 02:07:38;;;;;;;2.70;1.33;;;10.20;99.90;;;;;;4993416;28;20397;-73
2021/12/29 02:10:24;;;;;;;4.60;1.50;;;10.20;99.90;;;;;;4987578;28;20546;-72
2021/12/29 02:13:11;;;;;;;3.40;1.33;;;10.10;99.90;;;;;;4991849;28;20582;-72
2021/12/29 02:15:58;;;;;;;4.70;1.30;;;10.20;99.90;;;;;;5060114;22;20491;-74
2021/12/29 02:18:51;;;;;;;4.20;1.40;;;10.20;99.90;;;;;;5046208;28;20451;-73
2021/12/29 02:21:42;;;;;;;2.77;1.10;;;10.20;99.90;;;;;;5046913;28;20464;-74
2021/12/29 02:24:38;;;;;;;7.73;1.57;;;10.20;99.90;;;;;;5047171;28;20440;-74
2021/12/29 02:27:25;;;;;;;2.77;1.20;;;10.20;99.90;;;;;;5025738;28;21039;-74
2021/12/29 02:30:12;;;;;;;5.30;1.63;;;10.20;99.90;;;;;;5026588;28;20483;-73
2021/12/29 02:33:02;;;;;;;5.17;2.20;;;10.20;99.90;;;;;;5032714;28;20952;-74
2021/12/29 02:35:48;;;;;;;6.80;1.47;;;10.20;99.90;;;;;;5019492;28;20459;-74
2021/12/29 02:38:43;;;;;;;4.87;1.37;;;10.20;99.90;;;;;;5028663;28;20452;-73
2021/12/29 02:41:31;;;;;;;3.83;1.40;;;10.10;99.90;;;;;;5038553;28;20443;-73
2021/12/29 02:44:23;;;;;;;5.30;1.40;;;10.10;99.90;;;;;;5032296;28;20472;-73
2021/12/29 02:47:10;;;;;;;4.53;1.30;;;10.10;99.90;;;;;;5035212;28;20436;-73
2021/12/29 02:49:55;;;;;;;2.90;1.10;;;10.10;99.90;;;;;;5027855;28;20563;-73
2021/12/29 02:52:41;;;;;;;4.60;1.37;;;10.10;99.90;;;;;;5025415;28;20528;-74
2021/12/29 02:55:28;;;;;;;17.57;1.30;;;10.10;99.90;;;;;;5025451;28;20472;-74
2021/12/29 02:58:14;;;;;;;2.57;1.00;;;10.10;99.90;;;;;;5015342;28;20444;-74
2021/12/29 03:01:02;;;;;;;4.33;1.53;;;10.10;99.90;;;;;;5026315;28;20444;-74
2021/12/29 03:03:48;;;;;;;6.40;1.47;;;10.20;99.90;;;;;;5026067;28;20416;-74
2021/12/29 03:06:34;;;;;;;4.30;1.35;;;10.20;99.90;;;;;;5029788;28;20964;-74
2021/12/29 03:09:21;;;;;;;2.87;1.57;;;10.10;99.90;;;;;;5027287;28;20232;-74
2021/12/29 03:12:08;;;;;;;2.47;1.30;;;10.10;99.90;;;;;;5023846;28;20534;-74
2021/12/29 03:14:58;;;;;;;4.90;1.60;;;10.10;99.90;;;;;;5031819;28;20863;-74
2021/12/29 03:17:43;;;;;;;2.87;1.30;;;10.10;99.90;;;;;;5033861;28;20452;-73
2021/12/29 03:20:30;;;;;;;6.67;1.50;;;10.10;99.90;;;;;;5026931;28;20502;-74
2021/12/29 03:23:16;;;;;;;6.90;1.40;;;10.10;99.90;;;;;;5035376;28;20452;-74
2021/12/29 03:26:03;;;;;;;3.30;1.37;;;10.00;99.90;;;;;;5037933;28;20444;-74
2021/12/29 03:28:51;;;;;;;1.80;1.07;;;10.00;99.90;;;;;;5025955;28;21326;-74
2021/12/29 03:31:39;;;;;;;2.57;0.97;;;10.00;99.90;;;;;;5032065;28;20912;-74
2021/12/29 03:34:24;;;;;;;6.47;1.60;;;10.10;99.90;;;;;;5024165;28;21256;-74
2021/12/29 03:37:10;;;;;;;4.43;1.27;;;10.10;99.90;;;;;;5035119;28;20482;-73
2021/12/29 03:39:56;;;;;;;3.13;0.93;;;10.00;99.90;;;;;;5031886;28;20965;-74
2021/12/29 03:42:41;;;;;;;5.50;1.10;;;10.00;99.90;;;;;;5035489;28;20555;-73
2021/12/29 03:45:29;;;;;;;3.63;1.20;;;10.00;99.90;;;;;;5036614;28;20882;-74
2021/12/29 03:48:16;;;;;;;6.07;1.30;;;9.90;99.90;;;;;;5024781;28;20444;-73
2021/12/29 03:51:02;;;;;;;5.40;1.80;;;9.90;99.90;;;;;;5030781;28;21009;-73
2021/12/29 03:53:48;;;;;;;4.47;1.47;;;9.90;99.90;;;;;;5038039;28;20767;-74
2021/12/29 03:56:34;;;;;;;4.30;1.27;;;9.90;99.90;;;;;;5036873;28;21226;-74
2021/12/29 03:59:20;;;;;;;2.90;1.10;;;9.80;99.90;;;;;;5029293;28;20814;-74
2021/12/29 04:02:07;;;;;;;3.00;1.40;;;9.90;99.90;;;;;;5032347;28;20448;-73
2021/12/29 04:04:53;;;;;;;2.60;1.60;;;9.90;99.90;;;;;;5036697;28;20483;-74
2021/12/29 04:07:39;;;;;;;2.80;1.13;;;9.90;99.90;;;;;;5030699;28;20503;-74
2021/12/29 04:10:25;;;;;;;5.03;1.55;;;9.90;99.90;;;;;;5030498;28;20611;-73
2021/12/29 04:13:11;;;;;;;5.50;1.67;;;10.00;99.90;;;;;;5034864;28;20332;-73
2021/12/29 04:15:57;;;;;;;2.57;1.27;;;10.00;99.90;;;;;;5034668;28;20531;-74
2021/12/29 04:18:55;;;;;;;4.33;1.67;;;9.90;99.90;;;;;;5025181;28;21092;-73
2021/12/29 04:21:46;;;;;;;3.00;1.30;;;10.00;99.90;;;;;;5027546;28;20980;-74
2021/12/29 04:24:31;;;;;;;3.00;1.43;;;9.90;99.90;;;;;;5031069;28;20490;-74
2021/12/29 04:27:17;;;;;;;6.20;1.40;;;9.90;99.90;;;;;;5019255;28;20529;-74
2021/12/29 04:30:03;;;;;;;3.57;1.57;;;9.90;99.90;;;;;;5027928;28;21023;-73
2021/12/29 04:32:52;;;;;;;9.77;1.40;;;10.00;99.90;;;;;;5031696;28;20472;-74
2021/12/29 04:35:39;;;;;;;6.80;1.63;;;10.00;99.90;;;;;;5026046;28;20229;-73
2021/12/29 04:38:25;;;;;;;4.07;1.80;;;10.00;99.90;;;;;;5020982;28;20452;-74
2021/12/29 04:41:11;;;;;;;4.50;1.73;;;10.00;99.90;;;;;;5026032;28;20440;-73
2021/12/29 04:43:57;;;;;;;3.93;1.83;;;10.00;99.90;;;;;;5032798;28;20420;-74
2021/12/29 04:46:46;;;;;;;5.37;2.37;;;10.00;99.90;;;;;;5028970;28;20423;-73
2021/12/29 04:49:40;;;;;;;5.63;1.70;;;9.90;99.90;;;;;;5030594;28;20473;-74
2021/12/29 04:52:27;;;;;;;11.43;2.07;;;10.00;99.90;;;;;;5018335;28;21021;-74
2021/12/29 04:55:12;;;;;;;6.73;1.60;;;10.00;99.90;;;;;;5033994;28;20440;-74
2021/12/29 04:58:00;;;;;;;4.30;2.00;;;10.00;99.90;;;;;;5024639;28;20543;-74
2021/12/29 05:00:46;;;;;;;3.47;1.33;;;10.00;99.90;;;;;;5033977;28;20957;-73
2021/12/29 05:03:32;;;;;;;2.80;1.37;;;9.90;99.90;;;;;;5030830;28;20972;-73
2021/12/29 05:09:22;;;;;;;2.80;1.10;;;9.90;99.90;;;;;;5026086;28;20476;-74
2021/12/29 05:12:09;;;;;;;2.93;1.20;;;9.90;99.90;;;;;;5032081;28;21068;-73
2021/12/29 05:14:55;;;;;;;4.33;1.73;;;9.90;99.90;;;;;;5031562;28;21000;-74
2021/12/29 05:17:40;;;;;;;2.63;1.30;;;9.90;99.90;;;;;;5018151;28;20454;-74
2021/12/29 05:20:27;;;;;;;4.57;1.70;;;9.80;99.90;;;;;;5017636;28;20549;-73
2021/12/29 05:23:13;;;;;;;6.77;2.57;;;9.90;99.90;;;;;;5034809;28;20403;-74
2021/12/29 05:26:00;;;;;;;2.97;1.40;;;9.90;99.90;;;;;;5028454;28;20506;-73
2021/12/29 05:28:46;;;;;;;4.30;1.60;;;9.80;99.90;;;;;;5028739;28;20424;-74
2021/12/29 05:31:32;;;;;;;3.30;1.73;;;9.80;99.90;;;;;;5029623;28;20820;-75
2021/12/29 05:34:17;;;;;;;2.03;1.40;;;9.80;99.90;;;;;;5033268;28;20527;-74
2021/12/29 05:37:03;;;;;;;3.23;1.63;;;9.80;99.90;;;;;;5015306;28;20457;-73
2021/12/29 05:39:49;;;;;;;2.50;1.60;;;9.90;99.90;;;;;;5022109;28;20533;-74
2021/12/29 05:42:36;;;;;;;5.97;2.17;;;9.90;99.90;;;;;;5035860;28;20490;-74
2021/12/29 05:45:23;;;;;;;9.90;2.00;;;9.80;99.90;;;;;;5013541;28;20433;-74
2021/12/29 05:48:08;;;;;;;5.30;2.40;;;9.80;99.90;;;;;;5029369;28;20838;-74
2021/12/29 05:50:54;;;;;;;3.10;2.10;;;9.80;99.90;;;;;;5031363;28;20544;-73
2021/12/29 05:53:40;;;;;;;2.90;2.10;;;9.80;99.90;;;;;;5031368;28;20472;-73
2021/12/29 05:56:26;;;;;;;3.57;1.63;;;9.80;99.90;;;;;;5023340;28;20449;-74
2021/12/29 05:59:13;;;;;;;6.10;2.20;;;9.80;99.90;;;;;;5032284;28;20432;-74
2021/12/29 06:01:59;;;;;;;3.60;2.87;;;9.90;99.90;;;;;;5030664;28;20416;-74
2021/12/29 06:04:44;;;;;;;4.37;3.20;;;9.80;99.90;;;;;;5026389;28;20461;-74
2021/12/29 06:07:31;;;;;;;4.57;3.70;;;9.80;99.90;;;;;;5033127;28;20957;-74
2021/12/29 06:10:16;;;;;;;5.33;4.40;;;9.80;99.90;;;;;;5032411;28;20525;-73
2021/12/29 06:13:02;;;;;;;6.80;5.30;;;9.80;99.90;;;;;;5022876;28;21033;-74
2021/12/29 06:15:49;;;;;;;9.50;5.90;;;9.80;99.90;;;;;;5029009;28;21158;-74
2021/12/29 06:18:35;;;;;;;7.20;5.70;;;9.90;99.90;;;;;;5030310;28;21053;-74
2021/12/29 06:21:20;;;;;;;10.30;6.20;;;9.90;99.90;;;;;;5032425;28;20417;-74
2021/12/29 06:24:07;;;;;;;7.57;5.20;;;9.90;99.90;;;;;;5030360;28;20473;-74
2021/12/29 06:26:52;;;;;;;5.87;5.27;;;9.90;99.90;;;;;;5022061;28;20820;-74
2021/12/29 06:29:38;;;;;;;5.57;4.40;;;9.90;99.90;;;;;;5032144;28;20415;-74
2021/12/29 06:32:25;;;;;;;5.00;4.10;;;9.90;99.90;;;;;;5030575;28;20456;-73
2021/12/29 06:35:12;;;;;;;8.20;4.57;;;9.90;99.90;;;;;;5029741;28;20448;-74
2021/12/29 06:37:58;;;;;;;5.43;3.63;;;9.80;99.90;;;;;;5025353;28;20486;-73
2021/12/29 06:40:44;;;;;;;4.43;3.20;;;9.80;99.90;;;;;;5032145;28;20428;-74
2021/12/29 06:43:30;;;;;;;4.90;3.17;;;9.90;99.90;;;;;;5024033;28;20441;-74
2021/12/29 06:46:16;;;;;;;6.10;3.00;;;9.90;99.90;;;;;;5022160;28;20527;-74
2021/12/29 06:49:03;;;;;;;4.97;2.40;;;9.90;99.90;;;;;;5029543;28;20452;-74
2021/12/29 06:51:49;;;;;;;4.23;1.93;;;9.90;99.90;;;;;;5028332;28;21075;-74
2021/12/29 06:54:35;;;;;;;6.63;3.37;;;10.00;99.90;;;;;;5031759;28;20449;-73
2021/12/29 06:57:21;;;;;;;4.90;2.30;;;10.00;99.90;;;;;;5024535;28;20568;-73
2021/12/29 07:00:09;;;;;;;7.23;2.90;;;10.00;99.90;;;;;;5026388;28;20895;-74
2021/12/29 07:02:54;;;;;;;3.87;1.83;;;9.90;99.90;;;;;;5028254;28;20403;-74
2021/12/29 07:05:41;;;;;;;6.47;2.50;;;9.90;99.90;;;;;;5018067;28;20530;-73
2021/12/29 07:08:27;;;;;;;9.53;2.17;;;9.90;99.90;;;;;;5029401;28;20969;-73
2021/12/29 07:11:13;;;;;;;9.30;2.00;;;9.90;99.90;;;;;;5031538;28;20976;-74
2021/12/29 07:14:02;;;;;;;4.80;2.10;;;9.90;99.90;;;;;;5032543;28;20789;-74
2021/12/29 07:16:49;;;;;;;5.70;2.23;;;9.90;99.90;;;;;;5014685;28;20453;-73
2021/12/29 07:19:35;;;;;;;10.70;2.47;;;9.80;99.90;;;;;;5032048;28;20406;-74
2021/12/29 07:22:23;;;;;;;5.97;2.77;;;9.80;99.90;;;;;;5028396;28;20444;-74
2021/12/29 07:25:09;;;;;;;6.23;2.17;;;9.80;99.90;;;;;;5028538;28;20956;-73
2021/12/29 07:27:55;;;;;;;8.30;2.60;;;9.90;99.90;;;;;;5023403;28;20448;-74
2021/12/29 07:30:40;;;;;;;3.33;1.97;;;9.90;99.90;;;;;;5029235;28;20615;-73
2021/12/29 07:33:26;;;;;;;2.83;2.00;;;9.80;99.90;;;;;;5036783;28;20460;-74
2021/12/29 07:36:12;;;;;;;5.27;2.10;;;9.80;99.90;;;;;;5014411;28;20453;-73
2021/12/29 07:39:00;;;;;;;3.90;2.37;;;9.80;99.90;;;;;;5017300;28;20960;-73
2021/12/29 07:41:47;;;;;;;5.17;2.20;;;9.80;99.90;;;;;;5031142;28;20417;-73
2021/12/29 07:44:32;;;;;;;7.07;2.63;;;9.90;99.90;;;;;;5024602;28;20485;-73
2021/12/29 07:47:18;;;;;;;3.03;1.90;;;9.80;99.90;;;;;;5031224;28;20412;-75
2021/12/29 07:50:05;;;;;;;9.13;2.17;;;9.80;99.90;;;;;;5024597;28;20574;-73
2021/12/29 07:52:51;;;;;;;2.87;1.80;;;9.80;99.90;;;;;;5026588;28;20456;-75
2021/12/29 07:55:38;;;;;;;12.60;2.57;;;9.80;99.90;;;;;;5020398;28;20602;-76
2021/12/29 07:58:23;;;;;;;7.80;1.80;;;9.80;99.90;;;;;;5020110;28;20447;-75
2021/12/29 08:01:10;;;;;;;4.10;1.90;;;9.90;99.90;;;;;;5031341;28;20416;-74
2021/12/29 08:03:56;;;;;;;7.77;1.87;;;9.90;99.90;;;;;;5033620;28;20478;-74
2021/12/29 08:06:42;;;;;;;15.97;2.30;;;9.90;99.90;;;;;;5023562;28;20522;-75
2021/12/29 08:09:28;;;;;;;5.67;2.13;;;9.90;99.90;;;;;;5026818;28;20398;-74
2021/12/29 08:12:15;;;;;;;10.80;1.90;;;9.90;99.90;;;;;;5030365;28;20824;-75
2021/12/29 08:15:00;;;;;;;6.33;2.33;;;9.90;99.90;;;;;;5035359;22;20545;-74
2021/12/29 08:17:46;;;;;;;4.17;2.17;;;9.90;99.90;;;;;;5049822;28;20423;-74
2021/12/29 08:20:33;;;;;;;3.93;1.53;;;9.90;99.90;;;;;;5045934;28;20426;-74
2021/12/29 08:23:19;;;;;;;5.63;1.90;;;9.90;99.90;;;;;;5049945;28;20505;-74
2021/12/29 08:26:04;;;;;;;4.30;1.73;;;9.90;99.90;;;;;;5039787;28;21035;-74
2021/12/29 08:28:51;;;;;;;5.33;2.00;;;9.90;99.90;;;;;;5030255;28;20418;-74
2021/12/29 08:31:37;;;;;;;2.97;1.80;;;10.00;99.90;;;;;;5031553;28;20442;-74
2021/12/29 08:34:23;;;;;;;2.93;1.90;;;10.00;99.90;;;;;;5026532;28;20922;-74
2021/12/29 08:37:09;;;;;;;3.70;2.00;;;10.00;99.90;;;;;;5033288;28;20913;-74
2021/12/29 08:39:55;;;;;;;4.77;2.13;;;10.00;99.90;;;;;;5027173;28;20451;-73
2021/12/29 08:42:41;;;;;;;7.33;1.57;;;10.10;99.90;;;;;;5026516;28;20775;-74
2021/12/29 08:45:30;;;;;;;5.60;3.10;;;10.10;99.90;;;;;;5027558;28;20916;-74
2021/12/29 08:48:16;;;;;;;3.57;2.07;;;10.10;99.90;;;;;;5034272;28;20953;-74
2021/12/29 08:51:01;;;;;;;3.93;2.10;;;10.00;99.90;;;;;;5033991;28;20467;-74
2021/12/29 08:53:48;;;;;;;4.53;1.80;;;10.00;99.90;;;;;;5031093;28;20467;-74
2021/12/29 08:56:33;;;;;;;7.67;3.20;;;10.00;99.90;;;;;;5031518;28;20502;-74
2021/12/29 08:59:19;;;;;;;4.33;1.77;;;10.00;99.90;;;;;;5026005;28;20440;-74
2021/12/29 09:02:07;;;;;;;2.57;1.70;;;9.90;99.90;;;;;;5030328;28;20443;-74
2021/12/29 09:04:53;;;;;;;5.63;2.00;;;10.00;99.90;;;;;;5031415;28;20435;-74
2021/12/29 09:07:40;;;;;;;3.13;1.90;;;10.00;99.90;;;;;;5030687;28;20440;-74
2021/12/29 09:10:26;;;;;;;8.73;2.03;;;10.10;99.90;;;;;;5033907;28;20532;-74
2021/12/29 09:13:12;;;;;;;3.90;1.90;;;10.10;99.90;;;;;;5029887;28;20519;-74
2021/12/29 09:15:58;;;;;;;3.50;2.00;;;10.10;99.90;;;;;;5033649;28;20464;-74
2021/12/29 09:18:45;;;;;;;8.13;2.53;;;10.10;99.90;;;;;;5032426;28;20452;-74
2021/12/29 09:21:33;;;;;;;2.30;1.70;;;10.10;99.90;;;;;;5024989;28;20448;-74
2021/12/29 09:24:19;;;;;;;4.13;2.10;;;10.20;99.90;;;;;;5022946;28;20554;-74
2021/12/29 09:27:06;;;;;;;6.40;2.00;;;10.30;99.90;;;;;;5033469;28;20412;-74
2021/12/29 09:29:55;;;;;;;6.70;2.10;;;10.30;99.90;;;;;;5031853;28;20451;-74
2021/12/29 09:32:41;;;;;;;5.97;2.00;;;10.30;99.90;;;;;;5024974;28;21013;-74
2021/12/29 09:35:28;;;;;;;5.10;2.37;;;10.30;99.90;;;;;;5026321;28;20801;-74
2021/12/29 09:38:14;;;;;;;5.33;1.80;;;10.30;99.90;;;;;;5032340;28;20419;-74
2021/12/29 09:41:00;;;;;;;5.23;1.87;;;10.20;99.90;;;;;;5032781;28;20519;-74
2021/12/29 09:43:48;;;;;;;7.80;2.70;;;10.30;99.90;;;;;;5015558;28;20460;-75
2021/12/29 09:46:33;;;;;;;9.80;2.43;;;10.30;99.90;;;;;;5025722;28;20595;-74
2021/12/29 09:49:19;;;;;;;6.83;2.30;;;10.30;99.90;;;;;;5029310;28;20527;-75
2021/12/29 09:52:07;;;;;;;6.23;2.30;;;10.30;99.90;;;;;;5028129;28;20480;-75
2021/12/29 09:54:53;;;;;;;4.20;2.10;;;10.40;99.90;;;;;;5030087;28;20434;-73
2021/12/29 09:57:44;;;;;;;6.10;2.60;;;10.30;99.90;;;;;;5029717;28;20448;-75
2021/12/29 10:00:33;;;;;;;4.83;2.60;;;10.40;99.90;;;;;;5022093;28;20550;-73
2021/12/29 10:03:21;;;;;;;7.43;2.07;;;10.40;99.90;;;;;;5022341;28;20499;-74
2021/12/29 10:06:09;;;;;;;5.53;1.93;;;10.40;99.90;;;;;;5029373;28;20527;-74
2021/12/29 10:08:56;;;;;;;5.37;2.17;;;10.50;99.90;;;;;;5029689;28;20534;-73
2021/12/29 10:11:43;;;;;;;7.10;1.97;;;10.50;99.90;;;;;;5026831;28;20447;-73
2021/12/29 10:14:34;;;;;;;4.97;3.27;;;10.60;99.90;;;;;;5023927;28;20471;-73
2021/12/29 10:17:21;;;;;;;5.47;2.13;;;10.60;99.90;;;;;;5022514;28;20607;-73
2021/12/29 10:20:09;;;;;;;9.93;2.37;;;10.50;99.90;;;;;;5024690;28;20521;-74
2021/12/29 10:22:57;;;;;;;7.10;2.30;;;10.60;99.90;;;;;;5032869;28;20451;-73
2021/12/29 10:25:44;;;;;;;4.63;2.00;;;10.60;99.90;;;;;;5030959;28;20472;-71
2021/12/29 10:28:32;;;;;;;5.93;2.63;;;10.60;99.90;;;;;;5025140;28;20456;-72
2021/12/29 10:31:20;;;;;;;7.07;2.90;;;10.50;99.90;;;;;;5019787;28;20487;-72
2021/12/29 10:34:09;;;;;;;8.63;2.30;;;10.60;99.90;;;;;;5020971;28;20424;-73
2021/12/29 10:36:57;;;;;;;7.40;2.20;;;10.70;99.90;;;;;;5015171;28;20451;-74
2021/12/29 10:39:47;;;;;;;6.73;2.23;;;10.80;99.90;;;;;;5023958;28;20436;-73
2021/12/29 10:42:34;;;;;;;3.50;2.07;;;10.90;99.90;;;;;;5020701;28;20454;-74
2021/12/29 10:45:29;;;;;;;6.17;3.60;;;11.00;99.90;;;;;;5031067;28;20427;-74
2021/12/29 10:48:20;;;;;;;9.33;2.30;;;10.80;99.90;;;;;;5029562;28;20765;-73
2021/12/29 10:51:08;;;;;;;7.80;2.77;;;10.80;99.90;;;;;;5021203;28;20934;-74
2021/12/29 10:53:53;;;;;;;5.50;2.00;;;10.90;99.90;;;;;;5035637;28;20486;-74
2021/12/29 10:56:40;;;;;;;7.40;2.77;;;10.90;99.90;;;;;;5028759;28;20427;-74
2021/12/29 10:59:31;;;;;;;4.70;2.37;;;10.90;99.90;;;;;;5025378;28;20805;-74
2021/12/29 11:02:27;;;;;;;10.70;2.53;;;10.90;99.90;;;;;;5027013;28;20448;-72
2021/12/29 11:05:13;;;;;;;6.07;1.70;;;10.80;99.90;;;;;;5019545;28;20547;-74
2021/12/29 11:08:06;;;;;;;7.97;2.83;;;10.80;99.90;;;;;;5028395;28;21024;-74
2021/12/29 11:10:55;;;;;;;5.40;2.17;;;10.80;99.90;;;;;;5028005;28;20789;-74
2021/12/29 11:13:41;;;;;;;5.43;1.80;;;10.70;99.90;;;;;;5032143;28;20437;-73
2021/12/29 11:16:28;;;;;;;6.33;1.87;;;10.60;99.90;;;;;;5030993;28;20446;-74
2021/12/29 11:19:14;;;;;;;8.70;3.00;;;10.70;99.90;;;;;;5026952;28;20576;-73
2021/12/29 11:22:11;;;;;;;9.90;2.30;;;10.60;99.90;;;;;;5021686;28;20938;-74
2021/12/29 11:24:59;;;;;;;4.90;1.57;;;10.60;99.90;;;;;;5023624;28;20472;-74
2021/12/29 11:27:47;;;;;;;5.87;1.83;;;10.60;99.90;;;;;;5024925;28;20522;-73
2021/12/29 11:30:33;;;;;;;21.97;3.70;;;10.60;99.90;;;;;;5026227;28;20568;-75
2021/12/29 11:33:21;;;;;;;4.23;2.43;;;10.60;99.90;;;;;;5026440;28;20454;-74
2021/12/29 11:36:07;;;;;;;10.43;2.00;;;10.70;99.90;;;;;;5020616;28;20459;-74
2021/12/29 11:38:57;;;;;;;5.60;1.70;;;10.70;99.90;;;;;;5029309;28;20431;-75
2021/12/29 11:41:43;;;;;;;7.23;2.20;;;10.70;99.90;;;;;;5024079;28;20439;-74
2021/12/29 11:44:29;;;;;;;12.30;2.20;;;10.70;99.90;;;;;;5022034;28;20459;-74
2021/12/29 11:47:15;;;;;;;7.13;2.20;;;10.70;99.90;;;;;;5032636;28;20406;-74
2021/12/29 11:50:02;;;;;;;4.77;1.83;;;10.70;99.90;;;;;;5030896;28;20869;-74
2021/12/29 11:53:04;;;;;;;8.23;2.27;;;10.70;99.90;;;;;;5020119;28;21019;-73
2021/12/29 11:55:53;;;;;;;8.73;2.30;;;10.70;99.90;;;;;;5032577;28;20443;-74
2021/12/29 11:58:42;;;;;;;17.17;4.37;;;10.80;99.90;;;;;;5031651;28;20542;-74
2021/12/29 12:01:31;;;;;;;5.63;2.00;;;10.70;99.90;;;;;;5026341;28;20431;-74
2021/12/29 12:04:21;;;;;;;11.50;2.73;;;10.80;99.90;;;;;;5032157;28;20460;-74
2021/12/29 12:07:11;;;;;;;8.73;2.50;;;10.80;99.90;;;;;;5034135;28;20427;-74
2021/12/29 12:10:01;;;;;;;10.80;2.40;;;10.80;99.90;;;;;;5025557;28;20503;-74
2021/12/29 12:12:52;;;;;;;5.90;1.93;;;10.80;99.90;;;;;;5031068;28;20447;-73
2021/12/29 12:15:39;;;;;;;6.43;2.60;;;10.90;99.90;;;;;;5030230;28;21009;-74
2021/12/29 12:18:43;;;;;;;9.47;2.13;;;10.90;99.90;;;;;;5028995;28;20427;-74
2021/12/29 12:21:33;;;;;;;5.60;1.87;;;10.90;99.90;;;;;;5015939;28;20440;-74
2021/12/29 12:24:23;;;;;;;7.20;2.77;;;11.00;99.90;;;;;;5030888;28;20510;-74
2021/12/29 12:27:15;;;;;;;6.17;2.50;;;10.90;99.90;;;;;;5032115;28;20419;-74
2021/12/29 12:30:04;;;;;;;6.53;2.30;;;10.70;99.90;;;;;;5030259;28;20399;-75
2021/12/29 12:32:52;;;;;;;6.93;2.20;;;10.70;99.90;;;;;;5027190;28;20446;-74
2021/12/29 12:35:40;;;;;;;3.90;1.87;;;10.70;99.90;;;;;;5027756;28;20971;-74
2021/12/29 12:38:27;;;;;;;6.13;2.40;;;10.70;99.90;;;;;;5031542;28;20444;-74
2021/12/29 12:41:17;;;;;;;3.90;2.17;;;10.60;99.90;;;;;;5028658;28;20495;-74
2021/12/29 12:44:04;;;;;;;6.57;2.30;;;10.60;99.90;;;;;;5027195;28;20491;-74
2021/12/29 12:46:51;;;;;;;9.30;3.83;;;10.50;99.90;;;;;;5015413;28;20404;-74
2021/12/29 12:49:45;;;;;;;7.90;2.30;;;10.50;99.90;;;;;;5031771;28;20947;-73
2021/12/29 12:52:41;;;;;;;8.43;2.77;;;10.40;99.90;;;;;;5023676;28;20472;-74
2021/12/29 12:55:29;;;;;;;6.77;2.70;;;10.40;99.90;;;;;;5022398;28;20599;-74
2021/12/29 12:58:17;;;;;;;7.70;2.47;;;10.40;99.90;;;;;;5029865;28;20473;-74
2021/12/29 13:01:08;;;;;;;7.50;2.80;;;10.40;99.90;;;;;;5025133;28;20431;-74
2021/12/29 13:04:00;;;;;;;12.43;2.40;;;10.40;99.90;;;;;;5028242;28;20460;-74
2021/12/29 13:06:52;;;;;;;7.10;2.17;;;10.40;99.90;;;;;;5029212;28;20929;-73
2021/12/29 13:09:46;;;;;;;11.30;2.70;;;10.40;99.90;;;;;;5018032;28;20448;-73
2021/12/29 13:12:35;;;;;;;9.13;2.50;;;10.40;99.90;;;;;;5014906;28;20526;-74
2021/12/29 13:15:22;;;;;;;8.80;2.20;;;10.30;99.90;;;;;;5020953;28;20593;-74
2021/12/29 13:18:09;;;;;;;12.60;2.60;;;10.30;99.90;;;;;;5020951;28;20419;-73
2021/12/29 13:20:57;;;;;;;10.00;3.07;;;10.30;99.90;;;;;;5022891;28;20452;-71
2021/12/29 13:23:44;;;;;;;6.73;2.80;;;10.30;99.90;;;;;;5018393;28;20419;-72
2021/12/29 13:26:31;;;;;;;9.57;3.10;;;10.30;99.90;;;;;;5020123;28;20446;-72
2021/12/29 13:29:20;;;;;;;14.10;3.57;;;10.40;99.90;;;;;;5025301;28;20460;-72
2021/12/29 13:32:11;;;;;;;11.07;3.20;;;10.30;99.90;;;;;;5026037;28;20493;-72
2021/12/29 13:35:02;;;;;;;14.97;3.70;;;10.40;99.90;;;;;;5023449;28;20599;-72
2021/12/29 13:37:49;;;;;;;9.03;3.87;;;10.40;99.90;;;;;;5025584;28;21050;-72
2021/12/29 13:40:37;;;;;;;17.93;3.70;;;10.50;99.90;;;;;;5025803;28;20506;-72
2021/12/29 13:43:26;;;;;;;13.33;3.83;;;10.50;99.90;;;;;;5026133;28;20483;-72
2021/12/29 13:46:14;;;;;;;19.37;3.17;;;10.50;99.90;;;;;;5029434;28;20479;-71
2021/12/29 13:49:03;;;;;;;13.77;3.10;;;10.50;99.90;;;;;;5032212;28;20436;-72
2021/12/29 13:51:49;;;;;;;8.40;3.90;;;10.50;99.90;;;;;;5023952;28;20451;-72
2021/12/29 13:54:34;;;;;;;18.50;3.77;;;10.50;99.90;;;;;;5027232;28;20476;-72
2021/12/29 13:57:21;;;;;;;13.33;3.77;;;10.60;99.90;;;;;;5029903;28;20456;-72
2021/12/29 14:00:08;;;;;;;10.00;2.90;;;10.60;99.90;;;;;;5020443;28;20954;-71
2021/12/29 14:02:54;;;;;;;11.90;2.63;;;10.60;99.90;;;;;;5024205;28;20441;-71
2021/12/29 14:05:45;;;;;;;9.27;2.90;;;10.60;99.90;;;;;;5015153;28;21195;-72
2021/12/29 14:08:32;;;;;;;11.50;3.07;;;10.60;99.90;;;;;;5027041;28;20817;-73
2021/12/29 14:11:18;;;;;;;10.43;2.50;;;10.60;99.90;;;;;;5021855;28;20452;-73
2021/12/29 14:14:06;;;;;;;6.60;3.10;;;10.60;99.90;;;;;;5017323;28;20837;-74
2021/12/29 14:16:56;;;;;;;10.37;3.70;;;10.60;99.90;;;;;;5019248;28;20427;-73
2021/12/29 14:19:45;;;;;;;10.60;2.93;;;10.60;99.90;;;;;;5022106;28;20816;-73
2021/12/29 14:22:32;;;;;;;10.90;2.73;;;10.60;99.90;;;;;;5029607;28;20440;-73
2021/12/29 14:25:18;;;;;;;6.37;2.50;;;10.50;99.90;;;;;;5022003;28;20541;-73
2021/12/29 14:28:11;;;;;;;11.70;3.80;;;10.50;99.90;;;;;;5025216;28;20439;-73
2021/12/29 14:31:04;;;;;;;11.63;3.13;;;10.60;99.90;;;;;;5014345;28;20580;-73
2021/12/29 14:33:51;;;;;;;10.90;3.40;;;10.60;99.90;;;;;;5025069;28;20452;-73
2021/12/29 14:36:44;;;;;;;10.37;2.57;;;10.60;99.90;;;;;;5020996;28;20746;-73